Etusivu
METAR-TAF:

METAR-TAF

Lentoasemat :

Silver Bay Municipal Airport

Silver Bay, Minnesota, Yhdysvallat

Leveyspiiri: 47-12N, Pituuspiiri: 091-24W, korkeus merenpinnasta: 331 m

Tämänhetkinen sää

Tämä raportti tehtiin 18 minuuttia sitten, kello 10.36 UTC
Tuuli 7 kn pohjoisesta
Lämpötila 0°C
Kosteus 93%
Ilmanpaine 1008 hPa
Näkyvyys: 6.4 km
Hajonneita pilviä 2200 ft:n korkeudessa
Pilvistä 2900 ft:n korkeudessa
heikkoa lumisadetta

METAR: KBFW 211036Z AUTO 36007KT 4SM -SN BKN022 OVC029 00/M01 A2976 RMK AO2 P0001 P0001

Aika: 04:54 (10:54 UTC)


TAF: puuttuu

Säähavainnot ja -ennusteet yli 4000 lentoasemalta (METAR- ja TAF-raportit).

Käytössä olevat sääasemat on merkitty karttaan keltaisilla ja punaisilla pisteillä.

Aseta hiiri pisteen päälle nähdäksesi sääaseman nimen.

Klikkaa sitten nähdäksesi säähavainnot ja -ennusteet.

Kartan vaihtaminen: klikkaa mustalla rastilla varustettuja vihreitä pisteitä, niin voit zoomata sisään; viivalla varustettua vihreää pistettä, niin voit zoomata ulos tai vihreitä nuolia, niin pääset viereisille kartoille.


METAR-TAF: